sensor_id;sensor_type;location;lat;lon;timestamp;P1;durP1;ratioP1;P2;durP2;ratioP2
45402;SDS011;47427;51.976;5.326;2023-06-24T00:01:51;24.13;;;21.65;;
45402;SDS011;47427;51.976;5.326;2023-06-24T00:05:15;22.10;;;20.30;;
45402;SDS011;47427;51.976;5.326;2023-06-24T00:08:40;23.63;;;21.52;;
45402;SDS011;47427;51.976;5.326;2023-06-24T00:12:26;22.35;;;20.55;;
45402;SDS011;47427;51.976;5.326;2023-06-24T00:15:48;24.33;;;22.27;;
45402;SDS011;47427;51.976;5.326;2023-06-24T00:19:09;25.85;;;23.15;;
45402;SDS011;47427;51.976;5.326;2023-06-24T00:22:36;23.88;;;21.75;;
45402;SDS011;47427;51.976;5.326;2023-06-24T00:26:04;23.50;;;21.25;;
45402;SDS011;47427;51.976;5.326;2023-06-24T00:29:54;24.05;;;21.85;;
45402;SDS011;47427;51.976;5.326;2023-06-24T00:37:30;24.27;;;22.13;;
45402;SDS011;47427;51.976;5.326;2023-06-24T00:40:54;25.40;;;23.17;;
45402;SDS011;47427;51.976;5.326;2023-06-24T00:44:16;25.10;;;23.00;;
45402;SDS011;47427;51.976;5.326;2023-06-24T00:47:38;26.10;;;23.80;;
45402;SDS011;47427;51.976;5.326;2023-06-24T00:51:04;25.50;;;23.30;;
45402;SDS011;47427;51.976;5.326;2023-06-24T00:54:31;26.13;;;23.70;;
45402;SDS011;47427;51.976;5.326;2023-06-24T00:57:53;25.67;;;23.27;;
45402;SDS011;47427;51.976;5.326;2023-06-24T01:01:20;26.05;;;23.85;;
45402;SDS011;47427;51.976;5.326;2023-06-24T01:04:41;26.67;;;24.42;;
45402;SDS011;47427;51.976;5.326;2023-06-24T01:08:06;27.53;;;25.20;;
45402;SDS011;47427;51.976;5.326;2023-06-24T01:12:00;27.25;;;24.73;;
45402;SDS011;47427;51.976;5.326;2023-06-24T01:15:25;27.42;;;25.02;;
45402;SDS011;47427;51.976;5.326;2023-06-24T01:18:51;28.42;;;25.75;;
45402;SDS011;47427;51.976;5.326;2023-06-24T01:22:30;25.75;;;23.52;;
45402;SDS011;47427;51.976;5.326;2023-06-24T01:31:39;25.95;;;23.65;;
45402;SDS011;47427;51.976;5.326;2023-06-24T01:35:19;23.60;;;21.50;;
45402;SDS011;47427;51.976;5.326;2023-06-24T01:39:09;23.45;;;21.35;;
45402;SDS011;47427;51.976;5.326;2023-06-24T01:42:32;22.95;;;20.80;;
45402;SDS011;47427;51.976;5.326;2023-06-24T01:45:57;23.03;;;21.13;;
45402;SDS011;47427;51.976;5.326;2023-06-24T01:49:20;22.13;;;20.23;;
45402;SDS011;47427;51.976;5.326;2023-06-24T01:52:44;21.67;;;19.65;;
45402;SDS011;47427;51.976;5.326;2023-06-24T01:56:12;21.08;;;19.27;;
45402;SDS011;47427;51.976;5.326;2023-06-24T01:59:39;20.42;;;18.20;;
45402;SDS011;47427;51.976;5.326;2023-06-24T02:03:06;19.27;;;17.67;;
45402;SDS011;47427;51.976;5.326;2023-06-24T02:06:29;19.70;;;17.90;;
45402;SDS011;47427;51.976;5.326;2023-06-24T02:09:53;18.85;;;17.25;;
45402;SDS011;47427;51.976;5.326;2023-06-24T02:13:41;18.13;;;16.70;;
45402;SDS011;47427;51.976;5.326;2023-06-24T02:17:09;17.85;;;16.15;;
45402;SDS011;47427;51.976;5.326;2023-06-24T02:20:32;17.80;;;16.40;;
45402;SDS011;47427;51.976;5.326;2023-06-24T02:24:06;17.42;;;15.93;;
45402;SDS011;47427;51.976;5.326;2023-06-24T02:27:55;17.98;;;16.48;;
45402;SDS011;47427;51.976;5.326;2023-06-24T02:31:43;22.48;;;16.98;;
45402;SDS011;47427;51.976;5.326;2023-06-24T02:35:29;18.73;;;16.88;;
45402;SDS011;47427;51.976;5.326;2023-06-24T02:38:53;17.83;;;16.20;;
45402;SDS011;47427;51.976;5.326;2023-06-24T02:42:19;16.77;;;15.27;;
45402;SDS011;47427;51.976;5.326;2023-06-24T02:45:40;16.70;;;15.32;;
45402;SDS011;47427;51.976;5.326;2023-06-24T02:49:02;17.95;;;16.40;;
45402;SDS011;47427;51.976;5.326;2023-06-24T02:52:51;17.70;;;16.17;;
45402;SDS011;47427;51.976;5.326;2023-06-24T02:56:16;17.15;;;15.63;;
45402;SDS011;47427;51.976;5.326;2023-06-24T02:59:41;16.47;;;15.17;;
45402;SDS011;47427;51.976;5.326;2023-06-24T03:03:06;17.10;;;15.63;;
45402;SDS011;47427;51.976;5.326;2023-06-24T03:06:30;16.80;;;15.50;;
45402;SDS011;47427;51.976;5.326;2023-06-24T03:09:58;18.95;;;17.25;;
45402;SDS011;47427;51.976;5.326;2023-06-24T03:13:20;18.63;;;17.08;;
45402;SDS011;47427;51.976;5.326;2023-06-24T03:16:47;18.17;;;16.80;;
45402;SDS011;47427;51.976;5.326;2023-06-24T03:20:15;18.05;;;16.75;;
45402;SDS011;47427;51.976;5.326;2023-06-24T03:23:36;18.95;;;17.35;;
45402;SDS011;47427;51.976;5.326;2023-06-24T03:27:26;18.65;;;17.25;;
45402;SDS011;47427;51.976;5.326;2023-06-24T03:31:12;20.13;;;18.55;;
45402;SDS011;47427;51.976;5.326;2023-06-24T03:35:00;20.10;;;18.40;;
45402;SDS011;47427;51.976;5.326;2023-06-24T03:38:24;21.83;;;19.83;;
45402;SDS011;47427;51.976;5.326;2023-06-24T03:41:46;20.00;;;18.50;;
45402;SDS011;47427;51.976;5.326;2023-06-24T03:45:09;18.52;;;17.13;;
45402;SDS011;47427;51.976;5.326;2023-06-24T03:48:31;20.05;;;18.55;;
45402;SDS011;47427;51.976;5.326;2023-06-24T03:51:59;21.30;;;19.55;;
45402;SDS011;47427;51.976;5.326;2023-06-24T03:55:21;20.75;;;19.15;;
45402;SDS011;47427;51.976;5.326;2023-06-24T03:58:42;21.08;;;19.48;;
45402;SDS011;47427;51.976;5.326;2023-06-24T04:02:07;20.73;;;19.17;;
45402;SDS011;47427;51.976;5.326;2023-06-24T04:05:28;21.02;;;19.42;;
45402;SDS011;47427;51.976;5.326;2023-06-24T04:08:50;21.05;;;19.38;;
45402;SDS011;47427;51.976;5.326;2023-06-24T04:12:38;20.65;;;18.90;;
45402;SDS011;47427;51.976;5.326;2023-06-24T04:15:59;22.10;;;20.25;;
45402;SDS011;47427;51.976;5.326;2023-06-24T04:19:23;20.75;;;19.08;;
45402;SDS011;47427;51.976;5.326;2023-06-24T04:22:49;19.95;;;18.45;;
45402;SDS011;47427;51.976;5.326;2023-06-24T04:26:11;20.83;;;19.20;;
45402;SDS011;47427;51.976;5.326;2023-06-24T04:29:32;22.50;;;20.58;;
45402;SDS011;47427;51.976;5.326;2023-06-24T04:32:57;22.77;;;20.90;;
45402;SDS011;47427;51.976;5.326;2023-06-24T04:36:21;23.33;;;21.45;;
45402;SDS011;47427;51.976;5.326;2023-06-24T04:39:43;22.73;;;20.85;;
45402;SDS011;47427;51.976;5.326;2023-06-24T04:43:05;22.83;;;21.02;;
45402;SDS011;47427;51.976;5.326;2023-06-24T04:50:15;22.75;;;20.95;;
45402;SDS011;47427;51.976;5.326;2023-06-24T04:53:36;22.25;;;20.45;;
45402;SDS011;47427;51.976;5.326;2023-06-24T04:56:58;22.95;;;21.05;;
45402;SDS011;47427;51.976;5.326;2023-06-24T05:00:19;22.95;;;20.80;;
45402;SDS011;47427;51.976;5.326;2023-06-24T05:04:09;23.77;;;21.85;;
45402;SDS011;47427;51.976;5.326;2023-06-24T05:07:30;24.35;;;22.08;;
45402;SDS011;47427;51.976;5.326;2023-06-24T05:10:52;23.73;;;21.80;;
45402;SDS011;47427;51.976;5.326;2023-06-24T05:14:15;24.58;;;22.67;;
45402;SDS011;47427;51.976;5.326;2023-06-24T05:17:40;24.90;;;22.65;;
45402;SDS011;47427;51.976;5.326;2023-06-24T05:21:27;24.38;;;22.27;;
45402;SDS011;47427;51.976;5.326;2023-06-24T05:25:14;25.58;;;23.55;;
45402;SDS011;47427;51.976;5.326;2023-06-24T05:28:44;25.17;;;22.98;;
45402;SDS011;47427;51.976;5.326;2023-06-24T05:32:06;25.27;;;23.13;;
45402;SDS011;47427;51.976;5.326;2023-06-24T05:35:27;25.40;;;23.30;;
45402;SDS011;47427;51.976;5.326;2023-06-24T05:38:52;25.92;;;23.70;;
45402;SDS011;47427;51.976;5.326;2023-06-24T05:42:16;27.45;;;24.83;;
45402;SDS011;47427;51.976;5.326;2023-06-24T05:49:24;25.50;;;23.35;;
45402;SDS011;47427;51.976;5.326;2023-06-24T05:52:51;25.58;;;22.92;;
45402;SDS011;47427;51.976;5.326;2023-06-24T05:56:15;25.92;;;23.65;;
45402;SDS011;47427;51.976;5.326;2023-06-24T05:59:38;26.17;;;23.90;;
45402;SDS011;47427;51.976;5.326;2023-06-24T06:03:28;24.60;;;22.55;;
45402;SDS011;47427;51.976;5.326;2023-06-24T06:07:14;24.48;;;22.48;;
45402;SDS011;47427;51.976;5.326;2023-06-24T06:11:02;25.23;;;22.85;;
45402;SDS011;47427;51.976;5.326;2023-06-24T06:14:23;25.58;;;22.80;;
45402;SDS011;47427;51.976;5.326;2023-06-24T06:17:45;24.42;;;22.52;;
45402;SDS011;47427;51.976;5.326;2023-06-24T06:21:07;25.73;;;23.42;;
45402;SDS011;47427;51.976;5.326;2023-06-24T06:24:29;23.55;;;21.60;;
45402;SDS011;47427;51.976;5.326;2023-06-24T06:28:15;24.58;;;22.27;;
45402;SDS011;47427;51.976;5.326;2023-06-24T06:31:37;24.80;;;22.45;;
45402;SDS011;47427;51.976;5.326;2023-06-24T06:34:58;25.08;;;22.75;;
45402;SDS011;47427;51.976;5.326;2023-06-24T06:38:20;23.35;;;21.45;;
45402;SDS011;47427;51.976;5.326;2023-06-24T06:41:43;24.88;;;22.13;;
45402;SDS011;47427;51.976;5.326;2023-06-24T06:45:10;25.17;;;22.90;;
45402;SDS011;47427;51.976;5.326;2023-06-24T06:48:31;24.80;;;22.58;;
45402;SDS011;47427;51.976;5.326;2023-06-24T06:51:53;26.05;;;23.92;;
45402;SDS011;47427;51.976;5.326;2023-06-24T06:55:16;24.73;;;22.73;;
45402;SDS011;47427;51.976;5.326;2023-06-24T06:58:37;25.75;;;23.45;;
45402;SDS011;47427;51.976;5.326;2023-06-24T07:01:59;24.42;;;22.38;;
45402;SDS011;47427;51.976;5.326;2023-06-24T07:05:20;25.83;;;23.27;;
45402;SDS011;47427;51.976;5.326;2023-06-24T07:08:44;26.40;;;24.10;;
45402;SDS011;47427;51.976;5.326;2023-06-24T07:12:06;26.23;;;24.00;;
45402;SDS011;47427;51.976;5.326;2023-06-24T07:15:31;25.50;;;23.33;;
45402;SDS011;47427;51.976;5.326;2023-06-24T07:18:52;24.08;;;21.95;;
45402;SDS011;47427;51.976;5.326;2023-06-24T07:22:40;22.33;;;20.48;;
45402;SDS011;47427;51.976;5.326;2023-06-24T07:26:27;22.75;;;20.85;;
45402;SDS011;47427;51.976;5.326;2023-06-24T07:29:54;21.45;;;19.85;;
45402;SDS011;47427;51.976;5.326;2023-06-24T07:33:16;21.95;;;20.10;;
45402;SDS011;47427;51.976;5.326;2023-06-24T07:36:37;21.67;;;19.75;;
45402;SDS011;47427;51.976;5.326;2023-06-24T07:39:59;21.75;;;19.95;;
45402;SDS011;47427;51.976;5.326;2023-06-24T07:43:20;23.13;;;21.38;;
45402;SDS011;47427;51.976;5.326;2023-06-24T07:46:43;23.58;;;21.55;;
45402;SDS011;47427;51.976;5.326;2023-06-24T07:50:04;23.55;;;21.77;;
45402;SDS011;47427;51.976;5.326;2023-06-24T07:53:26;22.25;;;20.55;;
45402;SDS011;47427;51.976;5.326;2023-06-24T07:56:48;21.52;;;19.58;;
45402;SDS011;47427;51.976;5.326;2023-06-24T08:00:12;22.45;;;20.45;;
45402;SDS011;47427;51.976;5.326;2023-06-24T08:03:36;21.23;;;19.73;;
45402;SDS011;47427;51.976;5.326;2023-06-24T08:07:26;20.65;;;18.92;;
45402;SDS011;47427;51.976;5.326;2023-06-24T08:10:47;18.65;;;17.35;;
45402;SDS011;47427;51.976;5.326;2023-06-24T08:14:09;19.25;;;17.92;;
45402;SDS011;47427;51.976;5.326;2023-06-24T08:17:31;19.13;;;17.60;;
45402;SDS011;47427;51.976;5.326;2023-06-24T08:20:54;20.73;;;18.77;;
45402;SDS011;47427;51.976;5.326;2023-06-24T08:24:41;20.98;;;19.17;;
45402;SDS011;47427;51.976;5.326;2023-06-24T08:32:44;22.33;;;20.38;;
45402;SDS011;47427;51.976;5.326;2023-06-24T08:36:06;21.23;;;19.63;;
45402;SDS011;47427;51.976;5.326;2023-06-24T08:39:27;21.00;;;19.50;;
45402;SDS011;47427;51.976;5.326;2023-06-24T08:42:51;21.35;;;19.73;;
45402;SDS011;47427;51.976;5.326;2023-06-24T08:46:13;20.75;;;18.95;;
45402;SDS011;47427;51.976;5.326;2023-06-24T08:49:40;20.70;;;18.95;;
45402;SDS011;47427;51.976;5.326;2023-06-24T08:53:14;23.45;;;21.35;;
45402;SDS011;47427;51.976;5.326;2023-06-24T08:56:38;21.48;;;19.42;;
45402;SDS011;47427;51.976;5.326;2023-06-24T09:00:01;22.08;;;20.38;;
45402;SDS011;47427;51.976;5.326;2023-06-24T09:03:24;19.48;;;17.95;;
45402;SDS011;47427;51.976;5.326;2023-06-24T09:10:35;19.23;;;17.83;;
45402;SDS011;47427;51.976;5.326;2023-06-24T09:14:00;19.98;;;18.42;;
45402;SDS011;47427;51.976;5.326;2023-06-24T09:17:21;19.75;;;18.45;;
45402;SDS011;47427;51.976;5.326;2023-06-24T09:24:09;20.53;;;18.63;;
45402;SDS011;47427;51.976;5.326;2023-06-24T09:28:00;18.58;;;17.27;;
45402;SDS011;47427;51.976;5.326;2023-06-24T09:31:50;17.98;;;16.60;;
45402;SDS011;47427;51.976;5.326;2023-06-24T09:35:41;18.40;;;17.10;;
45402;SDS011;47427;51.976;5.326;2023-06-24T09:39:06;18.75;;;17.45;;
45402;SDS011;47427;51.976;5.326;2023-06-24T09:42:29;19.05;;;17.33;;
45402;SDS011;47427;51.976;5.326;2023-06-24T09:46:16;17.02;;;15.75;;
45402;SDS011;47427;51.976;5.326;2023-06-24T09:49:38;18.55;;;17.23;;
45402;SDS011;47427;51.976;5.326;2023-06-24T09:53:02;18.92;;;17.42;;
45402;SDS011;47427;51.976;5.326;2023-06-24T09:56:25;18.63;;;17.30;;
45402;SDS011;47427;51.976;5.326;2023-06-24T09:59:47;16.85;;;15.73;;
45402;SDS011;47427;51.976;5.326;2023-06-24T10:03:10;17.42;;;16.30;;
45402;SDS011;47427;51.976;5.326;2023-06-24T10:07:00;20.13;;;18.73;;
45402;SDS011;47427;51.976;5.326;2023-06-24T10:10:49;19.80;;;18.40;;
45402;SDS011;47427;51.976;5.326;2023-06-24T10:14:14;18.73;;;16.92;;
45402;SDS011;47427;51.976;5.326;2023-06-24T10:17:41;18.30;;;16.98;;
45402;SDS011;47427;51.976;5.326;2023-06-24T10:21:03;19.40;;;17.83;;
45402;SDS011;47427;51.976;5.326;2023-06-24T10:24:30;18.75;;;17.55;;
45402;SDS011;47427;51.976;5.326;2023-06-24T10:28:03;18.42;;;17.05;;
45402;SDS011;47427;51.976;5.326;2023-06-24T10:31:52;19.58;;;17.85;;
45402;SDS011;47427;51.976;5.326;2023-06-24T10:35:23;18.15;;;16.73;;
45402;SDS011;47427;51.976;5.326;2023-06-24T10:38:56;17.52;;;16.15;;
45402;SDS011;47427;51.976;5.326;2023-06-24T10:46:23;19.38;;;18.17;;
45402;SDS011;47427;51.976;5.326;2023-06-24T10:49:48;19.17;;;17.52;;
45402;SDS011;47427;51.976;5.326;2023-06-24T10:53:10;18.88;;;17.60;;
45402;SDS011;47427;51.976;5.326;2023-06-24T10:56:37;20.02;;;18.35;;
45402;SDS011;47427;51.976;5.326;2023-06-24T11:00:24;19.63;;;17.77;;
45402;SDS011;47427;51.976;5.326;2023-06-24T11:04:11;19.80;;;18.40;;
45402;SDS011;47427;51.976;5.326;2023-06-24T11:07:57;19.42;;;17.60;;
45402;SDS011;47427;51.976;5.326;2023-06-24T11:11:19;21.00;;;19.42;;
45402;SDS011;47427;51.976;5.326;2023-06-24T11:14:46;22.40;;;20.50;;
45402;SDS011;47427;51.976;5.326;2023-06-24T11:18:08;22.05;;;20.35;;
45402;SDS011;47427;51.976;5.326;2023-06-24T11:22:01;19.15;;;17.65;;
45402;SDS011;47427;51.976;5.326;2023-06-24T11:25:23;21.48;;;19.48;;
45402;SDS011;47427;51.976;5.326;2023-06-24T11:28:49;19.20;;;18.00;;
45402;SDS011;47427;51.976;5.326;2023-06-24T11:32:11;18.92;;;17.42;;
45402;SDS011;47427;51.976;5.326;2023-06-24T11:35:32;16.60;;;15.43;;
45402;SDS011;47427;51.976;5.326;2023-06-24T11:39:28;19.95;;;18.27;;
45402;SDS011;47427;51.976;5.326;2023-06-24T11:42:49;20.13;;;18.65;;
45402;SDS011;47427;51.976;5.326;2023-06-24T11:46:20;20.05;;;18.65;;
45402;SDS011;47427;51.976;5.326;2023-06-24T11:50:01;18.65;;;17.45;;
45402;SDS011;47427;51.976;5.326;2023-06-24T11:53:52;19.73;;;18.17;;
45402;SDS011;47427;51.976;5.326;2023-06-24T12:01:33;18.67;;;17.40;;
45402;SDS011;47427;51.976;5.326;2023-06-24T12:04:58;18.35;;;16.98;;
45402;SDS011;47427;51.976;5.326;2023-06-24T12:08:22;16.88;;;15.57;;
45402;SDS011;47427;51.976;5.326;2023-06-24T12:11:46;17.27;;;16.23;;
45402;SDS011;47427;51.976;5.326;2023-06-24T12:15:11;17.20;;;15.70;;
45402;SDS011;47427;51.976;5.326;2023-06-24T12:18:58;18.00;;;16.70;;
45402;SDS011;47427;51.976;5.326;2023-06-24T12:22:19;18.20;;;16.90;;
45402;SDS011;47427;51.976;5.326;2023-06-24T12:25:42;17.35;;;16.02;;
45402;SDS011;47427;51.976;5.326;2023-06-24T12:29:05;17.42;;;16.02;;
45402;SDS011;47427;51.976;5.326;2023-06-24T12:32:30;18.02;;;16.60;;
45402;SDS011;47427;51.976;5.326;2023-06-24T12:35:58;20.30;;;18.90;;
45402;SDS011;47427;51.976;5.326;2023-06-24T12:39:19;18.48;;;17.08;;
45402;SDS011;47427;51.976;5.326;2023-06-24T12:42:41;19.88;;;18.40;;
45402;SDS011;47427;51.976;5.326;2023-06-24T12:49:26;19.00;;;17.58;;
45402;SDS011;47427;51.976;5.326;2023-06-24T12:53:15;19.17;;;17.88;;
45402;SDS011;47427;51.976;5.326;2023-06-24T12:56:40;19.02;;;17.80;;
45402;SDS011;47427;51.976;5.326;2023-06-24T13:00:02;19.58;;;18.05;;
45402;SDS011;47427;51.976;5.326;2023-06-24T13:03:30;18.90;;;17.60;;
45402;SDS011;47427;51.976;5.326;2023-06-24T13:07:17;22.15;;;16.65;;
45402;SDS011;47427;51.976;5.326;2023-06-24T13:11:06;18.25;;;16.92;;
45402;SDS011;47427;51.976;5.326;2023-06-24T13:14:32;19.40;;;18.00;;
45402;SDS011;47427;51.976;5.326;2023-06-24T13:17:53;19.95;;;18.25;;
45402;SDS011;47427;51.976;5.326;2023-06-24T13:21:15;19.33;;;18.13;;
45402;SDS011;47427;51.976;5.326;2023-06-24T13:24:39;18.92;;;17.40;;
45402;SDS011;47427;51.976;5.326;2023-06-24T13:31:22;21.65;;;19.88;;
45402;SDS011;47427;51.976;5.326;2023-06-24T13:35:09;20.73;;;19.13;;
45402;SDS011;47427;51.976;5.326;2023-06-24T13:38:56;20.90;;;19.50;;
45402;SDS011;47427;51.976;5.326;2023-06-24T13:42:17;21.25;;;19.70;;
45402;SDS011;47427;51.976;5.326;2023-06-24T13:45:39;20.17;;;18.77;;
45402;SDS011;47427;51.976;5.326;2023-06-24T13:49:00;21.23;;;19.73;;
45402;SDS011;47427;51.976;5.326;2023-06-24T13:52:23;20.55;;;18.75;;
45402;SDS011;47427;51.976;5.326;2023-06-24T13:55:44;20.20;;;18.85;;
45402;SDS011;47427;51.976;5.326;2023-06-24T13:59:31;22.15;;;20.17;;
45402;SDS011;47427;51.976;5.326;2023-06-24T14:02:52;20.73;;;18.95;;
45402;SDS011;47427;51.976;5.326;2023-06-24T14:06:15;19.33;;;17.92;;
45402;SDS011;47427;51.976;5.326;2023-06-24T14:09:41;19.98;;;18.58;;
45402;SDS011;47427;51.976;5.326;2023-06-24T14:13:02;24.67;;;22.75;;
45402;SDS011;47427;51.976;5.326;2023-06-24T14:16:50;18.40;;;17.10;;
45402;SDS011;47427;51.976;5.326;2023-06-24T14:20:11;19.92;;;18.55;;
45402;SDS011;47427;51.976;5.326;2023-06-24T14:23:35;19.77;;;18.38;;
45402;SDS011;47427;51.976;5.326;2023-06-24T14:26:57;19.40;;;17.83;;
45402;SDS011;47427;51.976;5.326;2023-06-24T14:30:19;20.00;;;18.67;;
45402;SDS011;47427;51.976;5.326;2023-06-24T14:34:06;21.77;;;19.88;;
45402;SDS011;47427;51.976;5.326;2023-06-24T14:37:55;20.38;;;18.63;;
45402;SDS011;47427;51.976;5.326;2023-06-24T14:41:23;20.70;;;19.10;;
45402;SDS011;47427;51.976;5.326;2023-06-24T14:44:45;20.55;;;18.95;;
45402;SDS011;47427;51.976;5.326;2023-06-24T14:48:07;20.45;;;18.73;;
45402;SDS011;47427;51.976;5.326;2023-06-24T14:51:29;21.02;;;19.52;;
45402;SDS011;47427;51.976;5.326;2023-06-24T14:54:50;19.20;;;17.60;;
45402;SDS011;47427;51.976;5.326;2023-06-24T14:58:12;18.25;;;16.98;;
45402;SDS011;47427;51.976;5.326;2023-06-24T15:01:36;20.67;;;19.13;;
45402;SDS011;47427;51.976;5.326;2023-06-24T15:08:24;19.48;;;17.98;;
45402;SDS011;47427;51.976;5.326;2023-06-24T15:11:47;19.35;;;17.95;;
45402;SDS011;47427;51.976;5.326;2023-06-24T15:15:13;18.80;;;17.25;;
45402;SDS011;47427;51.976;5.326;2023-06-24T15:19:01;17.70;;;16.60;;
45402;SDS011;47427;51.976;5.326;2023-06-24T15:22:48;17.30;;;16.15;;
45402;SDS011;47427;51.976;5.326;2023-06-24T15:26:35;19.48;;;18.10;;
45402;SDS011;47427;51.976;5.326;2023-06-24T15:30:21;19.73;;;18.30;;
45402;SDS011;47427;51.976;5.326;2023-06-24T15:34:10;18.17;;;16.50;;
45402;SDS011;47427;51.976;5.326;2023-06-24T15:37:32;18.30;;;16.95;;
45402;SDS011;47427;51.976;5.326;2023-06-24T15:40:54;16.52;;;15.48;;
45402;SDS011;47427;51.976;5.326;2023-06-24T15:44:15;16.33;;;15.40;;
45402;SDS011;47427;51.976;5.326;2023-06-24T15:47:37;17.30;;;16.10;;
45402;SDS011;47427;51.976;5.326;2023-06-24T15:50:59;17.55;;;16.35;;
45402;SDS011;47427;51.976;5.326;2023-06-24T15:54:29;18.48;;;16.60;;
45402;SDS011;47427;51.976;5.326;2023-06-24T15:57:50;16.48;;;15.27;;
45402;SDS011;47427;51.976;5.326;2023-06-24T16:01:37;16.20;;;15.10;;
45402;SDS011;47427;51.976;5.326;2023-06-24T16:05:24;18.17;;;16.45;;
45402;SDS011;47427;51.976;5.326;2023-06-24T16:08:48;17.63;;;16.33;;
45402;SDS011;47427;51.976;5.326;2023-06-24T16:12:10;16.05;;;14.98;;
45402;SDS011;47427;51.976;5.326;2023-06-24T16:15:35;17.30;;;16.00;;
45402;SDS011;47427;51.976;5.326;2023-06-24T16:18:56;17.80;;;16.30;;
45402;SDS011;47427;51.976;5.326;2023-06-24T16:22:43;17.00;;;15.90;;
45402;SDS011;47427;51.976;5.326;2023-06-24T16:26:30;17.45;;;16.17;;
45402;SDS011;47427;51.976;5.326;2023-06-24T16:29:57;16.13;;;15.02;;
45402;SDS011;47427;51.976;5.326;2023-06-24T16:33:18;16.52;;;15.38;;
45402;SDS011;47427;51.976;5.326;2023-06-24T16:36:40;15.88;;;14.88;;
45402;SDS011;47427;51.976;5.326;2023-06-24T16:40:01;17.02;;;15.48;;
45402;SDS011;47427;51.976;5.326;2023-06-24T16:43:23;17.90;;;16.45;;
45402;SDS011;47427;51.976;5.326;2023-06-24T16:46:47;16.83;;;15.43;;
45402;SDS011;47427;51.976;5.326;2023-06-24T16:50:11;16.45;;;15.32;;
45402;SDS011;47427;51.976;5.326;2023-06-24T16:53:32;17.27;;;15.57;;
45402;SDS011;47427;51.976;5.326;2023-06-24T16:57:19;16.55;;;15.35;;
45402;SDS011;47427;51.976;5.326;2023-06-24T17:01:06;17.90;;;16.48;;
45402;SDS011;47427;51.976;5.326;2023-06-24T17:04:27;16.73;;;15.52;;
45402;SDS011;47427;51.976;5.326;2023-06-24T17:07:49;15.82;;;14.52;;
45402;SDS011;47427;51.976;5.326;2023-06-24T17:11:10;16.45;;;15.25;;
45402;SDS011;47427;51.976;5.326;2023-06-24T17:14:32;17.25;;;16.05;;
45402;SDS011;47427;51.976;5.326;2023-06-24T17:18:19;15.70;;;14.68;;
45402;SDS011;47427;51.976;5.326;2023-06-24T17:22:09;16.42;;;14.75;;
45402;SDS011;47427;51.976;5.326;2023-06-24T17:25:36;16.40;;;14.95;;
45402;SDS011;47427;51.976;5.326;2023-06-24T17:28:58;15.82;;;14.82;;
45402;SDS011;47427;51.976;5.326;2023-06-24T17:32:19;17.73;;;16.15;;
45402;SDS011;47427;51.976;5.326;2023-06-24T17:35:41;17.13;;;15.93;;
45402;SDS011;47427;51.976;5.326;2023-06-24T17:39:05;17.63;;;16.23;;
45402;SDS011;47427;51.976;5.326;2023-06-24T17:42:52;16.40;;;15.20;;
45402;SDS011;47427;51.976;5.326;2023-06-24T17:46:17;16.67;;;15.48;;
45402;SDS011;47427;51.976;5.326;2023-06-24T17:49:39;15.88;;;14.85;;
45402;SDS011;47427;51.976;5.326;2023-06-24T17:53:00;16.63;;;15.55;;
45402;SDS011;47427;51.976;5.326;2023-06-24T17:56:22;15.65;;;14.45;;
45402;SDS011;47427;51.976;5.326;2023-06-24T17:59:45;16.30;;;14.80;;
45402;SDS011;47427;51.976;5.326;2023-06-24T18:03:07;16.90;;;15.40;;
45402;SDS011;47427;51.976;5.326;2023-06-24T18:06:30;18.77;;;17.25;;
45402;SDS011;47427;51.976;5.326;2023-06-24T18:09:52;20.77;;;17.52;;
45402;SDS011;47427;51.976;5.326;2023-06-24T18:13:16;18.30;;;16.77;;
45402;SDS011;47427;51.976;5.326;2023-06-24T18:16:40;18.20;;;16.58;;
45402;SDS011;47427;51.976;5.326;2023-06-24T18:20:09;18.55;;;17.05;;
45402;SDS011;47427;51.976;5.326;2023-06-24T18:23:31;23.27;;;18.65;;
45402;SDS011;47427;51.976;5.326;2023-06-24T18:26:53;19.35;;;17.55;;
45402;SDS011;47427;51.976;5.326;2023-06-24T18:30:15;19.63;;;17.50;;
45402;SDS011;47427;51.976;5.326;2023-06-24T18:34:01;19.85;;;17.80;;
45402;SDS011;47427;51.976;5.326;2023-06-24T18:37:48;20.23;;;18.08;;
45402;SDS011;47427;51.976;5.326;2023-06-24T18:41:35;18.80;;;17.15;;
45402;SDS011;47427;51.976;5.326;2023-06-24T18:44:56;18.80;;;17.20;;
45402;SDS011;47427;51.976;5.326;2023-06-24T18:48:18;18.13;;;16.65;;
45402;SDS011;47427;51.976;5.326;2023-06-24T18:51:39;18.73;;;17.17;;
45402;SDS011;47427;51.976;5.326;2023-06-24T18:55:01;19.30;;;17.55;;
45402;SDS011;47427;51.976;5.326;2023-06-24T18:58:48;17.33;;;16.08;;
45402;SDS011;47427;51.976;5.326;2023-06-24T19:02:09;19.10;;;17.60;;
45402;SDS011;47427;51.976;5.326;2023-06-24T19:05:31;20.13;;;18.00;;
45402;SDS011;47427;51.976;5.326;2023-06-24T19:08:56;19.15;;;17.75;;
45402;SDS011;47427;51.976;5.326;2023-06-24T19:13:58;19.35;;;17.70;;
45402;SDS011;47427;51.976;5.326;2023-06-24T19:17:19;18.40;;;17.00;;
45402;SDS011;47427;51.976;5.326;2023-06-24T19:20:41;17.10;;;15.90;;
45402;SDS011;47427;51.976;5.326;2023-06-24T19:24:05;17.55;;;15.80;;
45402;SDS011;47427;51.976;5.326;2023-06-24T19:27:34;18.73;;;17.33;;
45402;SDS011;47427;51.976;5.326;2023-06-24T19:31:21;19.08;;;17.27;;
45402;SDS011;47427;51.976;5.326;2023-06-24T19:34:45;18.85;;;16.95;;
45402;SDS011;47427;51.976;5.326;2023-06-24T19:38:07;19.50;;;17.50;;
45402;SDS011;47427;51.976;5.326;2023-06-24T19:41:28;19.55;;;17.83;;
45402;SDS011;47427;51.976;5.326;2023-06-24T19:45:17;17.90;;;16.38;;
45402;SDS011;47427;51.976;5.326;2023-06-24T19:48:38;25.58;;;17.80;;
45402;SDS011;47427;51.976;5.326;2023-06-24T19:52:00;18.35;;;16.95;;
45402;SDS011;47427;51.976;5.326;2023-06-24T19:55:21;20.33;;;18.48;;
45402;SDS011;47427;51.976;5.326;2023-06-24T19:58:43;18.35;;;16.75;;
45402;SDS011;47427;51.976;5.326;2023-06-24T20:02:05;18.23;;;16.73;;
45402;SDS011;47427;51.976;5.326;2023-06-24T20:05:27;18.27;;;16.83;;
45402;SDS011;47427;51.976;5.326;2023-06-24T20:08:49;18.55;;;17.13;;
45402;SDS011;47427;51.976;5.326;2023-06-24T20:12:11;19.95;;;18.20;;
45402;SDS011;47427;51.976;5.326;2023-06-24T20:15:34;23.65;;;17.60;;
45402;SDS011;47427;51.976;5.326;2023-06-24T20:18:56;18.55;;;17.23;;
45402;SDS011;47427;51.976;5.326;2023-06-24T20:22:37;18.17;;;16.88;;
45402;SDS011;47427;51.976;5.326;2023-06-24T20:25:58;19.83;;;17.88;;
45402;SDS011;47427;51.976;5.326;2023-06-24T20:29:20;17.58;;;16.10;;
45402;SDS011;47427;51.976;5.326;2023-06-24T20:32:41;16.63;;;15.43;;
45402;SDS011;47427;51.976;5.326;2023-06-24T20:36:03;17.50;;;16.10;;
45402;SDS011;47427;51.976;5.326;2023-06-24T20:39:50;16.73;;;15.57;;
45402;SDS011;47427;51.976;5.326;2023-06-24T20:43:37;16.85;;;15.45;;
45402;SDS011;47427;51.976;5.326;2023-06-24T20:47:23;18.05;;;16.50;;
45402;SDS011;47427;51.976;5.326;2023-06-24T20:50:45;17.60;;;16.15;;
45402;SDS011;47427;51.976;5.326;2023-06-24T20:54:06;16.88;;;15.63;;
45402;SDS011;47427;51.976;5.326;2023-06-24T20:57:28;17.98;;;16.42;;
45402;SDS011;47427;51.976;5.326;2023-06-24T21:00:49;18.60;;;17.05;;
45402;SDS011;47427;51.976;5.326;2023-06-24T21:04:38;18.88;;;17.27;;
45402;SDS011;47427;51.976;5.326;2023-06-24T21:07:59;18.13;;;16.40;;